createdAt,value
2022-09-28T00:00:42.057Z,1.10
2022-09-28T00:03:09.554Z,1.30
2022-09-28T00:05:36.515Z,1.98
2022-09-28T00:08:03.183Z,1.60
2022-09-28T00:10:30.026Z,1.30
2022-09-28T00:12:56.795Z,1.02
2022-09-28T00:15:24.818Z,1.50
2022-09-28T00:17:51.459Z,1.00
2022-09-28T00:20:19.486Z,1.17
2022-09-28T00:22:46.145Z,1.08
2022-09-28T00:25:13.105Z,0.95
2022-09-28T00:27:40.324Z,0.95
2022-09-28T00:30:07.905Z,1.10
2022-09-28T00:32:34.733Z,0.98
2022-09-28T00:35:01.356Z,1.10
2022-09-28T00:37:28.174Z,0.88
2022-09-28T00:39:55.537Z,0.90
2022-09-28T00:42:24.342Z,1.08
2022-09-28T00:44:56.017Z,1.25
2022-09-28T00:47:45.580Z,1.17
2022-09-28T00:50:18.219Z,1.00
2022-09-28T00:52:50.968Z,1.25
2022-09-28T00:55:21.985Z,0.85
2022-09-28T00:57:57.926Z,1.30
2022-09-28T01:00:24.766Z,1.20
2022-09-28T01:02:51.589Z,1.35
2022-09-28T01:05:18.823Z,1.48
2022-09-28T01:07:46.651Z,1.40
2022-09-28T01:10:14.341Z,1.23
2022-09-28T01:12:41.449Z,1.40
2022-09-28T01:15:08.467Z,1.00
2022-09-28T01:17:44.371Z,1.10
2022-09-28T01:20:31.910Z,1.20
2022-09-28T01:23:17.335Z,1.05
2022-09-28T01:25:54.229Z,1.27
2022-09-28T01:28:26.029Z,1.30
2022-09-28T01:31:15.363Z,0.83
2022-09-28T01:33:48.423Z,1.08
2022-09-28T01:36:25.487Z,1.13
2022-09-28T01:39:09.089Z,1.52
2022-09-28T01:41:36.904Z,1.33
2022-09-28T01:44:06.469Z,1.50
2022-09-28T01:46:37.692Z,1.60
2022-09-28T01:49:27.105Z,1.17
2022-09-28T01:52:09.294Z,1.20
2022-09-28T01:54:44.867Z,1.45
2022-09-28T01:57:15.764Z,1.30
2022-09-28T01:59:47.611Z,1.23
2022-09-28T02:02:19.845Z,1.63
2022-09-28T02:04:51.391Z,1.20
2022-09-28T02:07:30.129Z,1.45
2022-09-28T02:10:04.201Z,1.60
2022-09-28T02:12:44.625Z,1.50
2022-09-28T02:15:17.163Z,1.95
2022-09-28T02:17:45.083Z,1.60
2022-09-28T02:20:13.380Z,1.90
2022-09-28T02:22:45.903Z,1.88
2022-09-28T02:25:30.359Z,1.92
2022-09-28T02:28:02.411Z,1.60
2022-09-28T02:30:34.108Z,2.45
2022-09-28T02:33:06.366Z,1.70
2022-09-28T02:35:35.451Z,2.00
2022-09-28T02:38:02.840Z,1.60
2022-09-28T02:40:34.444Z,1.92
2022-09-28T02:43:20.677Z,1.77
2022-09-28T02:46:00.542Z,1.90
2022-09-28T02:49:05.002Z,1.83
2022-09-28T02:51:58.050Z,1.70
2022-09-28T02:54:49.663Z,2.00
2022-09-28T02:57:53.951Z,1.98
2022-09-28T03:00:23.027Z,2.05
2022-09-28T03:02:58.203Z,1.70
2022-09-28T03:05:47.371Z,1.60
2022-09-28T03:08:20.120Z,1.83
2022-09-28T03:10:56.868Z,2.00
2022-09-28T03:13:25.313Z,1.75
2022-09-28T03:15:52.015Z,2.05
2022-09-28T03:18:18.922Z,2.63
2022-09-28T03:20:45.672Z,2.15
2022-09-28T03:23:24.352Z,1.98
2022-09-28T03:25:52.036Z,1.73
2022-09-28T03:28:18.696Z,1.60
2022-09-28T03:30:45.508Z,1.55
2022-09-28T03:33:12.305Z,1.50
2022-09-28T03:35:39.029Z,2.10
2022-09-28T03:38:05.800Z,1.77
2022-09-28T03:40:36.500Z,2.25
2022-09-28T03:43:03.431Z,2.40
2022-09-28T03:45:30.175Z,1.63
2022-09-28T03:47:56.831Z,1.40
2022-09-28T03:50:23.541Z,1.63
2022-09-28T03:52:50.153Z,1.95
2022-09-28T03:55:16.997Z,2.15
2022-09-28T03:57:43.646Z,1.25
2022-09-28T04:00:10.971Z,0.60
2022-09-28T04:02:40.564Z,0.68
2022-09-28T04:05:09.377Z,0.80
2022-09-28T04:07:37.550Z,0.73
2022-09-28T04:10:04.393Z,0.90
2022-09-28T04:12:31.296Z,0.60
2022-09-28T04:14:58.007Z,1.20
2022-09-28T04:17:24.691Z,0.95
2022-09-28T04:19:52.031Z,1.10
2022-09-28T04:22:25.629Z,0.88
2022-09-28T04:24:53.436Z,0.80
2022-09-28T04:27:38.757Z,0.90
2022-09-28T04:30:05.830Z,1.20
2022-09-28T04:32:34.098Z,1.20
2022-09-28T04:35:01.010Z,1.08
2022-09-28T04:37:27.713Z,1.00
2022-09-28T04:39:54.716Z,0.80
2022-09-28T04:42:21.415Z,1.10
2022-09-28T04:44:49.632Z,1.50
2022-09-28T04:47:16.631Z,1.00
2022-09-28T04:50:08.472Z,1.40
2022-09-28T04:52:55.100Z,0.90
2022-09-28T04:55:21.778Z,0.90
2022-09-28T04:57:48.489Z,1.10
2022-09-28T05:00:15.385Z,1.13
2022-09-28T05:02:51.292Z,1.23
2022-09-28T05:05:45.224Z,1.23
2022-09-28T05:08:40.956Z,1.23
2022-09-28T05:11:10.121Z,1.33
2022-09-28T05:13:42.931Z,1.27
2022-09-28T05:16:10.302Z,1.17
2022-09-28T05:18:56.520Z,1.10
2022-09-28T05:21:25.430Z,1.10
2022-09-28T05:23:52.627Z,1.33
2022-09-28T05:26:19.511Z,1.38
2022-09-28T05:28:46.271Z,1.50
2022-09-28T05:31:38.747Z,1.20
2022-09-28T05:34:17.151Z,1.20
2022-09-28T05:36:45.814Z,1.05
2022-09-28T05:39:12.560Z,1.20
2022-09-28T05:41:39.172Z,1.67
2022-09-28T05:44:05.843Z,1.48
2022-09-28T05:46:32.608Z,1.45
2022-09-28T05:49:01.051Z,1.30
2022-09-28T05:51:28.003Z,1.05
2022-09-28T05:54:00.740Z,1.15
2022-09-28T05:56:31.112Z,0.95
2022-09-28T05:58:58.801Z,1.38
2022-09-28T06:01:28.321Z,1.30
2022-09-28T06:03:57.199Z,1.13
2022-09-28T06:06:23.915Z,1.73
2022-09-28T06:08:50.851Z,2.33
2022-09-28T06:11:37.759Z,1.73
2022-09-28T06:14:13.779Z,1.60
2022-09-28T06:16:43.859Z,1.63
2022-09-28T06:19:11.909Z,1.40
2022-09-28T06:21:59.261Z,1.90
2022-09-28T06:24:26.331Z,1.73
2022-09-28T06:26:53.118Z,2.10
2022-09-28T06:29:20.845Z,2.35
2022-09-28T06:31:47.585Z,1.75
2022-09-28T06:34:14.746Z,1.95
2022-09-28T06:36:41.540Z,1.80
2022-09-28T06:39:08.951Z,1.70
2022-09-28T06:41:36.582Z,2.08
2022-09-28T06:44:13.304Z,1.85
2022-09-28T06:47:00.461Z,2.60
2022-09-28T06:49:51.379Z,2.10
2022-09-28T06:52:26.954Z,2.22
2022-09-28T06:55:13.829Z,2.50
2022-09-28T06:57:44.550Z,2.58
2022-09-28T07:00:12.035Z,2.40
2022-09-28T07:02:38.877Z,2.22
2022-09-28T07:05:16.922Z,3.30
2022-09-28T07:07:56.864Z,3.65
2022-09-28T07:10:43.794Z,3.10
2022-09-28T07:13:50.197Z,2.92
2022-09-28T07:16:24.149Z,3.60
2022-09-28T07:18:53.417Z,3.63
2022-09-28T07:21:29.347Z,4.07
2022-09-28T07:23:57.018Z,3.50
2022-09-28T07:26:24.698Z,3.95
2022-09-28T07:29:13.225Z,3.92
2022-09-28T07:34:44.241Z,3.85
2022-09-28T07:37:15.942Z,4.35
2022-09-28T07:40:01.300Z,4.68
2022-09-28T07:42:30.840Z,5.05
2022-09-28T07:44:58.497Z,4.72
2022-09-28T07:47:34.687Z,5.50
2022-09-28T07:50:27.924Z,4.57
2022-09-28T07:53:15.058Z,4.53
2022-09-28T07:56:03.936Z,4.88
2022-09-28T07:58:50.755Z,6.25
2022-09-28T08:01:43.435Z,4.80
2022-09-28T08:04:13.893Z,4.85
2022-09-28T08:06:44.166Z,4.43
2022-09-28T08:09:12.814Z,4.47
2022-09-28T08:12:13.013Z,5.10
2022-09-28T08:14:59.712Z,4.28
2022-09-28T08:17:39.938Z,4.70
2022-09-28T08:20:27.209Z,3.97
2022-09-28T08:22:53.902Z,5.03
2022-09-28T08:25:21.108Z,4.32
2022-09-28T08:27:49.172Z,4.10
2022-09-28T08:30:15.937Z,3.92
2022-09-28T08:32:52.248Z,3.72
2022-09-28T08:35:37.296Z,3.85
2022-09-28T08:38:16.566Z,3.90
2022-09-28T08:41:26.273Z,4.43
2022-09-28T08:44:25.353Z,3.00
2022-09-28T08:47:35.893Z,4.00
2022-09-28T08:50:29.347Z,2.70
2022-09-28T08:53:09.696Z,3.42
2022-09-28T08:55:54.063Z,3.42
2022-09-28T08:58:24.427Z,2.60
2022-09-28T09:00:52.941Z,3.17
2022-09-28T09:03:27.871Z,2.35
2022-09-28T09:07:11.792Z,2.60
2022-09-28T09:09:45.596Z,2.88
2022-09-28T09:12:38.302Z,2.40
2022-09-28T09:15:30.888Z,3.03
2022-09-28T09:23:46.248Z,3.15
2022-09-28T09:26:23.217Z,2.35
2022-09-28T09:29:00.616Z,2.78
2022-09-28T09:31:48.326Z,2.25
2022-09-28T09:34:26.190Z,2.55
2022-09-28T09:37:49.998Z,3.05
2022-09-28T09:41:00.436Z,2.20
2022-09-28T09:44:17.700Z,2.20
2022-09-28T09:47:11.675Z,2.20
2022-09-28T09:50:05.477Z,2.47
2022-09-28T09:52:47.749Z,2.10
2022-09-28T09:55:30.113Z,1.98
2022-09-28T09:58:29.873Z,1.58
2022-09-28T10:01:17.862Z,2.00
2022-09-28T10:04:06.475Z,2.15
2022-09-28T10:06:35.291Z,2.22
2022-09-28T10:09:06.251Z,1.70
2022-09-28T10:11:54.452Z,1.63
2022-09-28T10:14:23.485Z,2.10
2022-09-28T10:17:02.512Z,2.25
2022-09-28T10:20:12.763Z,2.42
2022-09-28T10:23:23.199Z,2.38
2022-09-28T10:25:52.671Z,2.40
2022-09-28T10:28:29.617Z,2.30
2022-09-28T10:30:56.790Z,2.15
2022-09-28T10:33:30.438Z,2.50
2022-09-28T10:35:57.403Z,2.47
2022-09-28T10:38:24.699Z,2.60
2022-09-28T10:44:13.485Z,2.20
2022-09-28T10:47:02.482Z,2.65
2022-09-28T10:49:46.727Z,2.25
2022-09-28T10:52:40.396Z,2.28
2022-09-28T10:55:30.618Z,2.65
2022-09-28T10:57:57.453Z,2.22
2022-09-28T11:00:36.445Z,2.47
2022-09-28T11:03:22.411Z,1.88
2022-09-28T11:05:56.247Z,2.20
2022-09-28T11:08:28.541Z,2.00
2022-09-28T11:11:03.918Z,1.70
2022-09-28T11:13:30.661Z,2.08
2022-09-28T11:16:05.064Z,2.10
2022-09-28T11:18:34.751Z,2.05
2022-09-28T11:21:27.351Z,2.47
2022-09-28T11:24:06.501Z,1.48
2022-09-28T11:26:48.007Z,2.00
2022-09-28T11:29:36.030Z,1.50
2022-09-28T11:32:29.489Z,2.08
2022-09-28T11:35:19.775Z,1.83
2022-09-28T11:37:52.908Z,1.97
2022-09-28T11:40:53.806Z,1.67
2022-09-28T11:43:43.062Z,1.60
2022-09-28T11:46:25.886Z,1.40
2022-09-28T11:48:58.368Z,1.60
2022-09-28T11:51:29.102Z,1.60
2022-09-28T11:54:00.451Z,1.65
2022-09-28T11:56:37.904Z,1.58
2022-09-28T11:59:56.070Z,1.40
2022-09-28T12:02:26.912Z,1.48
2022-09-28T12:05:00.546Z,1.30
2022-09-28T12:07:31.816Z,1.63
2022-09-28T12:10:09.529Z,1.75
2022-09-28T12:12:38.486Z,1.40
2022-09-28T12:17:49.998Z,1.35
2022-09-28T12:20:25.650Z,1.55
2022-09-28T12:23:05.400Z,1.48
2022-09-28T12:25:46.339Z,1.65
2022-09-28T12:28:19.201Z,1.30
2022-09-28T12:30:47.673Z,1.23
2022-09-28T12:33:16.070Z,1.20
2022-09-28T12:36:06.956Z,1.50
2022-09-28T12:38:42.740Z,2.42
2022-09-28T12:41:31.428Z,1.95
2022-09-28T12:44:06.150Z,1.63
2022-09-28T12:46:46.053Z,1.67
2022-09-28T12:50:33.406Z,1.75
2022-09-28T12:55:37.587Z,1.10
2022-09-28T12:58:04.183Z,0.98
2022-09-28T13:00:36.079Z,1.35
2022-09-28T13:03:19.214Z,0.90
2022-09-28T13:06:23.350Z,1.35
2022-09-28T13:09:16.544Z,1.25
2022-09-28T13:11:47.434Z,1.60
2022-09-28T13:14:38.932Z,1.00
2022-09-28T13:17:40.597Z,1.00
2022-09-28T13:20:25.576Z,1.10
2022-09-28T13:23:12.659Z,0.90
2022-09-28T13:25:46.853Z,1.33
2022-09-28T13:28:15.751Z,1.10
2022-09-28T13:30:44.438Z,0.80
2022-09-28T13:33:18.683Z,1.20
2022-09-28T13:35:45.773Z,1.00
2022-09-28T13:38:16.163Z,1.20
2022-09-28T13:41:04.524Z,1.05
2022-09-28T13:44:10.250Z,1.30
2022-09-28T13:46:49.030Z,1.00
2022-09-28T13:49:35.243Z,0.95
2022-09-28T13:52:08.050Z,1.08
2022-09-28T13:54:47.091Z,1.05
2022-09-28T13:57:19.741Z,0.90
2022-09-28T14:00:22.613Z,0.80
2022-09-28T14:03:24.421Z,0.90
2022-09-28T14:06:00.862Z,1.10
2022-09-28T14:08:40.087Z,0.90
2022-09-28T14:11:27.074Z,1.63
2022-09-28T14:14:08.860Z,0.88
2022-09-28T14:16:36.315Z,1.10
2022-09-28T14:19:17.158Z,1.00
2022-09-28T14:22:17.873Z,0.93
2022-09-28T14:25:03.718Z,1.35
2022-09-28T14:28:08.087Z,1.02
2022-09-28T14:30:43.585Z,1.25
2022-09-28T14:33:38.881Z,1.17
2022-09-28T14:36:43.814Z,0.77
2022-09-28T14:39:41.306Z,0.98
2022-09-28T14:42:10.239Z,0.77
2022-09-28T14:45:07.055Z,0.88
2022-09-28T14:47:42.236Z,0.90
2022-09-28T14:50:35.093Z,1.15
2022-09-28T14:53:06.679Z,1.25
2022-09-28T14:55:41.988Z,1.23
2022-09-28T14:58:16.360Z,1.90
2022-09-28T15:00:44.384Z,1.00
2022-09-28T15:03:15.485Z,0.73
2022-09-28T15:05:47.233Z,0.98
2022-09-28T15:08:14.150Z,1.10
2022-09-28T15:10:46.220Z,0.90
2022-09-28T15:13:23.336Z,0.95
2022-09-28T15:15:52.632Z,1.00
2022-09-28T15:18:32.306Z,1.20
2022-09-28T15:21:03.179Z,1.42
2022-09-28T15:23:41.627Z,1.48
2022-09-28T15:26:31.106Z,1.23
2022-09-28T15:28:58.899Z,0.82
2022-09-28T15:31:27.259Z,0.90
2022-09-28T15:34:12.611Z,0.90
2022-09-28T15:36:44.245Z,1.15
2022-09-28T15:39:21.555Z,0.77
2022-09-28T15:41:50.137Z,0.90
2022-09-28T15:44:24.284Z,1.10
2022-09-28T15:47:07.451Z,1.30
2022-09-28T15:49:46.919Z,0.98
2022-09-28T15:52:41.877Z,0.80
2022-09-28T15:55:19.924Z,0.80
2022-09-28T15:57:47.528Z,0.95
2022-09-28T16:00:27.707Z,0.80
2022-09-28T16:03:03.919Z,0.93
2022-09-28T16:05:40.568Z,0.80
2022-09-28T16:08:21.300Z,1.25
2022-09-28T16:11:11.039Z,1.15
2022-09-28T16:13:48.919Z,0.85
2022-09-28T16:16:16.543Z,1.27
2022-09-28T16:18:48.257Z,0.85
2022-09-28T16:21:55.743Z,1.05
2022-09-28T16:24:26.790Z,0.80
2022-09-28T16:26:59.440Z,0.90
2022-09-28T16:31:55.728Z,0.73
2022-09-28T16:34:26.641Z,1.00
2022-09-28T16:36:53.409Z,1.15
2022-09-28T16:39:20.849Z,1.20
2022-09-28T16:41:50.783Z,1.20
2022-09-28T16:44:28.546Z,0.93
2022-09-28T16:46:57.532Z,0.80
2022-09-28T16:49:25.657Z,1.50
2022-09-28T16:51:52.735Z,1.70
2022-09-28T16:54:40.547Z,2.50
2022-09-28T16:57:10.283Z,2.40
2022-09-28T16:59:38.526Z,1.30
2022-09-28T17:05:13.984Z,1.40
2022-09-28T17:07:40.940Z,1.25
2022-09-28T17:10:24.341Z,1.52
2022-09-28T17:12:52.192Z,0.80
2022-09-28T17:15:19.739Z,1.00
2022-09-28T17:17:47.957Z,1.20
2022-09-28T17:20:27.136Z,0.90
2022-09-28T17:22:54.123Z,1.17
2022-09-28T17:25:22.206Z,0.95
2022-09-28T17:27:49.579Z,0.85
2022-09-28T17:30:17.352Z,1.50
2022-09-28T17:32:47.271Z,1.50
2022-09-28T17:35:24.726Z,1.63
2022-09-28T17:37:52.590Z,1.08
2022-09-28T17:40:25.734Z,1.20
2022-09-28T17:42:55.181Z,0.98
2022-09-28T17:45:23.713Z,1.10
2022-09-28T17:47:50.296Z,1.15
2022-09-28T17:50:21.300Z,0.90
2022-09-28T17:52:52.683Z,1.00
2022-09-28T17:55:30.818Z,0.82
2022-09-28T17:57:58.433Z,1.30
2022-09-28T18:00:27.516Z,1.42
2022-09-28T18:02:58.257Z,1.58
2022-09-28T18:05:26.387Z,1.20
2022-09-28T18:07:53.340Z,1.70
2022-09-28T18:10:22.160Z,1.92
2022-09-28T18:12:49.784Z,1.52
2022-09-28T18:15:18.180Z,1.77
2022-09-28T18:17:45.118Z,1.63
2022-09-28T18:20:12.767Z,1.70
2022-09-28T18:22:39.723Z,2.10
2022-09-28T18:25:07.035Z,1.83
2022-09-28T18:27:37.025Z,2.10
2022-09-28T18:30:05.430Z,2.22
2022-09-28T18:32:36.837Z,1.90
2022-09-28T18:35:05.212Z,1.95
2022-09-28T18:37:36.344Z,1.80
2022-09-28T18:40:03.726Z,2.33
2022-09-28T18:42:30.343Z,1.85
2022-09-28T18:44:56.968Z,2.35
2022-09-28T18:47:23.911Z,2.58
2022-09-28T18:49:51.223Z,3.40
2022-09-28T18:52:17.913Z,2.65
2022-09-28T18:54:46.709Z,3.10
2022-09-28T18:57:13.348Z,2.65
2022-09-28T18:59:39.996Z,2.88
2022-09-28T19:02:06.929Z,2.40
2022-09-28T19:04:33.667Z,3.00
2022-09-28T19:07:00.325Z,2.50
2022-09-28T19:09:28.151Z,2.75
2022-09-28T19:11:54.905Z,2.80
2022-09-28T19:14:21.772Z,3.40
2022-09-28T19:16:48.521Z,3.13
2022-09-28T19:19:16.839Z,2.65
2022-09-28T19:21:43.916Z,2.63
2022-09-28T19:24:15.538Z,3.35
2022-09-28T19:26:42.805Z,2.92
2022-09-28T19:29:10.429Z,4.05
2022-09-28T19:31:37.365Z,4.10
2022-09-28T19:34:04.520Z,3.33
2022-09-28T19:36:31.546Z,3.33
2022-09-28T19:39:03.524Z,3.33
2022-09-28T19:41:43.305Z,3.67
2022-09-28T19:44:19.556Z,4.10
2022-09-28T19:46:46.397Z,4.47
2022-09-28T19:49:15.268Z,3.60
2022-09-28T19:52:01.655Z,3.92
2022-09-28T19:54:36.299Z,4.68
2022-09-28T19:57:08.751Z,4.05
2022-09-28T19:59:39.054Z,4.18
2022-09-28T20:02:07.227Z,3.97
2022-09-28T20:04:33.969Z,4.10
2022-09-28T20:07:01.554Z,4.57
2022-09-28T20:09:28.317Z,4.53
2022-09-28T20:11:55.130Z,4.60
2022-09-28T20:14:24.495Z,3.53
2022-09-28T20:16:53.411Z,4.10
2022-09-28T20:19:22.046Z,4.13
2022-09-28T20:21:49.404Z,4.07
2022-09-28T20:24:17.202Z,4.18
2022-09-28T20:26:44.701Z,4.20
2022-09-28T20:29:11.999Z,4.93
2022-09-28T20:31:38.916Z,4.55
2022-09-28T20:34:06.509Z,4.30
2022-09-28T20:36:33.616Z,4.43
2022-09-28T20:39:12.853Z,4.70
2022-09-28T20:41:42.553Z,4.13
2022-09-28T20:44:10.075Z,4.03
2022-09-28T20:46:37.023Z,4.43
2022-09-28T20:49:04.999Z,3.78
2022-09-28T20:51:31.866Z,4.35
2022-09-28T20:53:59.256Z,4.50
2022-09-28T20:56:30.637Z,4.32
2022-09-28T20:58:57.495Z,4.10
2022-09-28T21:01:30.049Z,3.83
2022-09-28T21:06:29.523Z,3.25
2022-09-28T21:08:56.283Z,4.43
2022-09-28T21:11:24.556Z,3.83
2022-09-28T21:14:02.030Z,3.78
2022-09-28T21:16:30.662Z,4.72
2022-09-28T21:18:57.793Z,4.00
2022-09-28T21:21:25.593Z,3.97
2022-09-28T21:23:56.191Z,4.47
2022-09-28T21:26:25.979Z,4.47
2022-09-28T21:28:57.964Z,4.30
2022-09-28T21:31:28.905Z,4.15
2022-09-28T21:33:56.787Z,4.40
2022-09-28T21:36:23.473Z,4.20
2022-09-28T21:38:50.183Z,4.68
2022-09-28T21:41:21.123Z,3.97
2022-09-28T21:43:47.763Z,4.35
2022-09-28T21:46:14.488Z,3.80
2022-09-28T21:48:41.224Z,4.18
2022-09-28T21:51:09.277Z,4.35
2022-09-28T21:53:37.060Z,4.20
2022-09-28T21:56:05.847Z,4.40
2022-09-28T21:58:34.080Z,4.57
2022-09-28T22:01:03.759Z,4.50
2022-09-28T22:03:31.735Z,4.20
2022-09-28T22:05:58.642Z,4.00
2022-09-28T22:08:25.703Z,4.00
2022-09-28T22:11:22.771Z,3.97
2022-09-28T22:13:55.220Z,4.32
2022-09-28T22:16:23.895Z,4.57
2022-09-28T22:18:50.723Z,4.25
2022-09-28T22:21:23.153Z,3.85
2022-09-28T22:23:50.091Z,3.55
2022-09-28T22:26:23.520Z,4.57
2022-09-28T22:29:01.771Z,3.88
2022-09-28T22:31:30.942Z,3.97
2022-09-28T22:33:58.273Z,4.53
2022-09-28T22:36:25.991Z,4.20
2022-09-28T22:38:54.062Z,4.35
2022-09-28T22:41:21.111Z,4.45
2022-09-28T22:43:49.115Z,5.13
2022-09-28T22:46:18.276Z,4.57
2022-09-28T22:48:50.016Z,4.40
2022-09-28T22:51:17.057Z,4.83
2022-09-28T22:53:46.963Z,4.35
2022-09-28T22:56:18.387Z,4.32
2022-09-28T22:58:46.334Z,4.15
2022-09-28T23:01:19.828Z,4.10
2022-09-28T23:03:47.033Z,4.38
2022-09-28T23:06:16.704Z,4.63
2022-09-28T23:08:45.380Z,4.13
2022-09-28T23:11:12.088Z,4.25
2022-09-28T23:13:38.804Z,4.68
2022-09-28T23:16:07.883Z,5.35
2022-09-28T23:18:37.515Z,5.35
2022-09-28T23:21:06.053Z,4.60
2022-09-28T23:23:33.149Z,4.22
2022-09-28T23:26:00.298Z,4.65
2022-09-28T23:28:27.420Z,4.78
2022-09-28T23:30:54.417Z,5.38
2022-09-28T23:33:21.792Z,6.45
2022-09-28T23:35:48.505Z,5.55
2022-09-28T23:38:18.165Z,5.10
2022-09-28T23:40:46.057Z,4.68
2022-09-28T23:43:13.267Z,4.47
2022-09-28T23:45:40.688Z,4.55
2022-09-28T23:48:07.533Z,4.18
2022-09-28T23:50:34.300Z,4.03
2022-09-28T23:53:01.012Z,3.92
2022-09-28T23:55:27.787Z,3.90
2022-09-28T23:57:56.805Z,4.22
